Decoded Metar for KLAW (LAWTON in OK, USA) (IATA:LAW) | Meteo·Mobile Aviation Weather
aviador You're here:

KLAW Decoded Metar

LAWTON in OK, USA
Report Time2018-12-13 11:10:00
UTC Time2018-12-13 11:20:29
Flight Rules lifr LIFR
WindCalm
Visibility1207 m
Phenomena:Mist
Clouds:N/A
Ceiling200 ft
Temp06°C (ISA -7)
Dew Point06°C (100% RH)
AAT5.1°C
QNH1003 hPa
Density Alt761 ft
Elevation1,106 ft
Report Wrong Elevation
Raw Report
KLAW 131110Z AUTO 00000KT 3/4SM BR VV002 06/06 A2963 RMK AO2 VIS
1/4V3 T00560056=

Extra information for KLAW:More info

Metar Taf Metar & Taf Last 4 Metars F.Rules Stats Wind Profile Meteogram Temp Stats Airport Information Weather charts Add Link Nearby VenuesMetar ALERT Operation Metar Decoded Social comments

AIRNAV info for KLAW